sensor_id;sensor_type;location;lat;lon;timestamp;P1;durP1;ratioP1;P2;durP2;ratioP2
51467;SDS011;37545;45.302;-122.946;2022-10-16T00:01:41;15.57;;;5.53;;
51467;SDS011;37545;45.302;-122.946;2022-10-16T00:04:10;9.18;;;5.45;;
51467;SDS011;37545;45.302;-122.946;2022-10-16T00:06:39;9.07;;;5.47;;
51467;SDS011;37545;45.302;-122.946;2022-10-16T00:09:07;9.70;;;5.55;;
51467;SDS011;37545;45.302;-122.946;2022-10-16T00:11:38;7.93;;;5.30;;
51467;SDS011;37545;45.302;-122.946;2022-10-16T00:14:08;6.85;;;5.60;;
51467;SDS011;37545;45.302;-122.946;2022-10-16T00:16:38;10.48;;;5.43;;
51467;SDS011;37545;45.302;-122.946;2022-10-16T00:19:07;8.98;;;5.40;;
51467;SDS011;37545;45.302;-122.946;2022-10-16T00:21:38;9.00;;;5.65;;
51467;SDS011;37545;45.302;-122.946;2022-10-16T00:24:07;9.00;;;5.38;;
51467;SDS011;37545;45.302;-122.946;2022-10-16T00:26:38;8.33;;;5.77;;
51467;SDS011;37545;45.302;-122.946;2022-10-16T00:29:07;9.63;;;5.53;;
51467;SDS011;37545;45.302;-122.946;2022-10-16T00:31:36;9.30;;;6.25;;
51467;SDS011;37545;45.302;-122.946;2022-10-16T00:34:05;10.90;;;6.63;;
51467;SDS011;37545;45.302;-122.946;2022-10-16T00:36:33;9.70;;;6.25;;
51467;SDS011;37545;45.302;-122.946;2022-10-16T00:39:11;12.43;;;6.90;;
51467;SDS011;37545;45.302;-122.946;2022-10-16T00:41:40;10.90;;;6.55;;
51467;SDS011;37545;45.302;-122.946;2022-10-16T00:47:11;12.15;;;6.88;;
51467;SDS011;37545;45.302;-122.946;2022-10-16T00:49:45;10.40;;;6.03;;
51467;SDS011;37545;45.302;-122.946;2022-10-16T00:52:15;13.55;;;6.07;;
51467;SDS011;37545;45.302;-122.946;2022-10-16T00:54:53;8.43;;;5.80;;
51467;SDS011;37545;45.302;-122.946;2022-10-16T00:57:23;9.73;;;5.70;;
51467;SDS011;37545;45.302;-122.946;2022-10-16T00:59:52;13.80;;;5.82;;
51467;SDS011;37545;45.302;-122.946;2022-10-16T01:02:22;8.90;;;5.68;;
51467;SDS011;37545;45.302;-122.946;2022-10-16T01:04:51;10.82;;;5.60;;
51467;SDS011;37545;45.302;-122.946;2022-10-16T01:07:24;8.10;;;5.70;;
51467;SDS011;37545;45.302;-122.946;2022-10-16T01:10:09;8.95;;;5.60;;
51467;SDS011;37545;45.302;-122.946;2022-10-16T01:12:51;9.68;;;5.70;;
51467;SDS011;37545;45.302;-122.946;2022-10-16T01:15:27;10.30;;;5.72;;
51467;SDS011;37545;45.302;-122.946;2022-10-16T01:18:02;12.48;;;5.40;;
51467;SDS011;37545;45.302;-122.946;2022-10-16T01:20:37;9.98;;;5.75;;
51467;SDS011;37545;45.302;-122.946;2022-10-16T01:23:16;10.65;;;5.22;;
51467;SDS011;37545;45.302;-122.946;2022-10-16T01:25:59;8.63;;;5.63;;
51467;SDS011;37545;45.302;-122.946;2022-10-16T01:28:41;8.70;;;5.80;;
51467;SDS011;37545;45.302;-122.946;2022-10-16T01:31:15;8.13;;;5.40;;
51467;SDS011;37545;45.302;-122.946;2022-10-16T01:33:50;10.10;;;5.43;;
51467;SDS011;37545;45.302;-122.946;2022-10-16T01:36:26;11.13;;;6.30;;
51467;SDS011;37545;45.302;-122.946;2022-10-16T01:39:01;11.63;;;5.97;;
51467;SDS011;37545;45.302;-122.946;2022-10-16T01:41:31;8.73;;;5.95;;
51467;SDS011;37545;45.302;-122.946;2022-10-16T01:44:04;10.35;;;5.65;;
51467;SDS011;37545;45.302;-122.946;2022-10-16T01:46:38;6.55;;;4.82;;
51467;SDS011;37545;45.302;-122.946;2022-10-16T01:51:38;10.85;;;7.00;;
51467;SDS011;37545;45.302;-122.946;2022-10-16T01:54:07;17.33;;;9.60;;
51467;SDS011;37545;45.302;-122.946;2022-10-16T01:56:43;10.38;;;7.38;;
51467;SDS011;37545;45.302;-122.946;2022-10-16T01:59:18;12.63;;;7.15;;
51467;SDS011;37545;45.302;-122.946;2022-10-16T02:01:49;11.70;;;6.72;;
51467;SDS011;37545;45.302;-122.946;2022-10-16T02:04:23;9.52;;;6.35;;
51467;SDS011;37545;45.302;-122.946;2022-10-16T02:06:55;10.63;;;6.35;;
51467;SDS011;37545;45.302;-122.946;2022-10-16T02:09:24;8.98;;;6.45;;
51467;SDS011;37545;45.302;-122.946;2022-10-16T02:11:53;9.80;;;6.00;;
51467;SDS011;37545;45.302;-122.946;2022-10-16T02:14:26;8.65;;;5.97;;
51467;SDS011;37545;45.302;-122.946;2022-10-16T02:16:55;10.63;;;6.15;;
51467;SDS011;37545;45.302;-122.946;2022-10-16T02:19:23;9.23;;;6.40;;
51467;SDS011;37545;45.302;-122.946;2022-10-16T02:21:53;8.48;;;6.30;;
51467;SDS011;37545;45.302;-122.946;2022-10-16T02:24:25;8.98;;;6.10;;
51467;SDS011;37545;45.302;-122.946;2022-10-16T02:27:00;10.95;;;5.95;;
51467;SDS011;37545;45.302;-122.946;2022-10-16T02:29:36;8.40;;;6.00;;
51467;SDS011;37545;45.302;-122.946;2022-10-16T02:32:10;10.02;;;6.35;;
51467;SDS011;37545;45.302;-122.946;2022-10-16T02:34:43;11.52;;;6.65;;
51467;SDS011;37545;45.302;-122.946;2022-10-16T02:37:13;11.05;;;6.97;;
51467;SDS011;37545;45.302;-122.946;2022-10-16T02:39:42;8.68;;;6.13;;
51467;SDS011;37545;45.302;-122.946;2022-10-16T02:42:11;10.70;;;6.80;;
51467;SDS011;37545;45.302;-122.946;2022-10-16T02:44:41;10.27;;;6.25;;
51467;SDS011;37545;45.302;-122.946;2022-10-16T02:47:10;9.43;;;6.60;;
51467;SDS011;37545;45.302;-122.946;2022-10-16T02:49:39;11.32;;;6.68;;
51467;SDS011;37545;45.302;-122.946;2022-10-16T02:52:07;13.45;;;6.78;;
51467;SDS011;37545;45.302;-122.946;2022-10-16T02:54:36;9.50;;;6.85;;
51467;SDS011;37545;45.302;-122.946;2022-10-16T02:57:05;10.05;;;6.28;;
51467;SDS011;37545;45.302;-122.946;2022-10-16T02:59:33;10.55;;;6.53;;
51467;SDS011;37545;45.302;-122.946;2022-10-16T03:02:04;14.43;;;7.45;;
51467;SDS011;37545;45.302;-122.946;2022-10-16T03:04:32;10.05;;;6.40;;
51467;SDS011;37545;45.302;-122.946;2022-10-16T03:07:01;9.18;;;6.28;;
51467;SDS011;37545;45.302;-122.946;2022-10-16T03:09:30;9.52;;;6.03;;
51467;SDS011;37545;45.302;-122.946;2022-10-16T03:11:58;10.07;;;5.90;;
51467;SDS011;37545;45.302;-122.946;2022-10-16T03:14:27;10.75;;;6.47;;
51467;SDS011;37545;45.302;-122.946;2022-10-16T03:16:55;7.05;;;5.40;;
51467;SDS011;37545;45.302;-122.946;2022-10-16T03:19:25;9.85;;;5.55;;
51467;SDS011;37545;45.302;-122.946;2022-10-16T03:21:54;10.07;;;6.38;;
51467;SDS011;37545;45.302;-122.946;2022-10-16T03:24:23;9.55;;;6.05;;
51467;SDS011;37545;45.302;-122.946;2022-10-16T03:26:51;9.95;;;6.05;;
51467;SDS011;37545;45.302;-122.946;2022-10-16T03:29:20;10.82;;;6.45;;
51467;SDS011;37545;45.302;-122.946;2022-10-16T03:31:48;10.52;;;6.15;;
51467;SDS011;37545;45.302;-122.946;2022-10-16T03:34:17;11.25;;;6.07;;
51467;SDS011;37545;45.302;-122.946;2022-10-16T03:36:47;8.32;;;5.43;;
51467;SDS011;37545;45.302;-122.946;2022-10-16T03:39:16;9.15;;;5.70;;
51467;SDS011;37545;45.302;-122.946;2022-10-16T03:41:44;11.07;;;6.00;;
51467;SDS011;37545;45.302;-122.946;2022-10-16T03:44:13;8.70;;;6.18;;
51467;SDS011;37545;45.302;-122.946;2022-10-16T03:46:42;9.15;;;6.03;;
51467;SDS011;37545;45.302;-122.946;2022-10-16T03:49:10;8.00;;;5.45;;
51467;SDS011;37545;45.302;-122.946;2022-10-16T03:51:39;9.52;;;5.85;;
51467;SDS011;37545;45.302;-122.946;2022-10-16T03:54:10;9.63;;;5.88;;
51467;SDS011;37545;45.302;-122.946;2022-10-16T03:56:39;9.25;;;5.70;;
51467;SDS011;37545;45.302;-122.946;2022-10-16T03:59:08;11.13;;;6.35;;
51467;SDS011;37545;45.302;-122.946;2022-10-16T04:01:37;9.55;;;5.63;;
51467;SDS011;37545;45.302;-122.946;2022-10-16T04:04:05;9.73;;;5.80;;
51467;SDS011;37545;45.302;-122.946;2022-10-16T04:06:34;8.70;;;5.75;;
51467;SDS011;37545;45.302;-122.946;2022-10-16T04:09:03;11.32;;;5.88;;
51467;SDS011;37545;45.302;-122.946;2022-10-16T04:11:33;9.57;;;5.80;;
51467;SDS011;37545;45.302;-122.946;2022-10-16T04:14:02;9.68;;;5.50;;
51467;SDS011;37545;45.302;-122.946;2022-10-16T04:16:31;9.77;;;5.85;;
51467;SDS011;37545;45.302;-122.946;2022-10-16T04:19:00;10.88;;;6.03;;
51467;SDS011;37545;45.302;-122.946;2022-10-16T04:21:29;7.47;;;5.20;;
51467;SDS011;37545;45.302;-122.946;2022-10-16T04:23:58;10.52;;;5.47;;
51467;SDS011;37545;45.302;-122.946;2022-10-16T04:26:27;8.38;;;5.80;;
51467;SDS011;37545;45.302;-122.946;2022-10-16T04:28:58;9.25;;;5.60;;
51467;SDS011;37545;45.302;-122.946;2022-10-16T04:31:26;10.65;;;5.43;;
51467;SDS011;37545;45.302;-122.946;2022-10-16T04:33:55;8.43;;;5.88;;
51467;SDS011;37545;45.302;-122.946;2022-10-16T04:36:24;8.52;;;5.63;;
51467;SDS011;37545;45.302;-122.946;2022-10-16T04:38:53;9.07;;;5.72;;
51467;SDS011;37545;45.302;-122.946;2022-10-16T04:41:22;8.73;;;5.57;;
51467;SDS011;37545;45.302;-122.946;2022-10-16T04:43:51;10.60;;;5.85;;
51467;SDS011;37545;45.302;-122.946;2022-10-16T04:46:21;8.45;;;6.30;;
51467;SDS011;37545;45.302;-122.946;2022-10-16T04:48:50;9.73;;;5.07;;
51467;SDS011;37545;45.302;-122.946;2022-10-16T04:51:19;10.50;;;6.18;;
51467;SDS011;37545;45.302;-122.946;2022-10-16T04:53:48;9.23;;;5.38;;
51467;SDS011;37545;45.302;-122.946;2022-10-16T04:56:24;9.02;;;5.47;;
51467;SDS011;37545;45.302;-122.946;2022-10-16T04:58:52;9.70;;;5.45;;
51467;SDS011;37545;45.302;-122.946;2022-10-16T05:01:23;8.55;;;5.90;;
51467;SDS011;37545;45.302;-122.946;2022-10-16T05:03:52;8.25;;;5.55;;
51467;SDS011;37545;45.302;-122.946;2022-10-16T05:06:21;10.15;;;5.72;;
51467;SDS011;37545;45.302;-122.946;2022-10-16T05:08:50;10.43;;;6.07;;
51467;SDS011;37545;45.302;-122.946;2022-10-16T05:11:19;8.55;;;5.78;;
51467;SDS011;37545;45.302;-122.946;2022-10-16T05:13:47;11.75;;;5.97;;
51467;SDS011;37545;45.302;-122.946;2022-10-16T05:16:16;9.85;;;5.72;;
51467;SDS011;37545;45.302;-122.946;2022-10-16T05:18:46;8.70;;;5.65;;
51467;SDS011;37545;45.302;-122.946;2022-10-16T05:21:15;14.05;;;5.93;;
51467;SDS011;37545;45.302;-122.946;2022-10-16T05:23:44;10.88;;;6.10;;
51467;SDS011;37545;45.302;-122.946;2022-10-16T05:26:13;10.48;;;5.45;;
51467;SDS011;37545;45.302;-122.946;2022-10-16T05:28:41;9.05;;;5.45;;
51467;SDS011;37545;45.302;-122.946;2022-10-16T05:31:10;9.77;;;5.35;;
51467;SDS011;37545;45.302;-122.946;2022-10-16T05:33:39;7.35;;;4.80;;
51467;SDS011;37545;45.302;-122.946;2022-10-16T05:36:10;9.20;;;5.47;;
51467;SDS011;37545;45.302;-122.946;2022-10-16T05:38:39;9.13;;;5.38;;
51467;SDS011;37545;45.302;-122.946;2022-10-16T05:41:07;9.25;;;5.95;;
51467;SDS011;37545;45.302;-122.946;2022-10-16T05:43:36;9.98;;;5.95;;
51467;SDS011;37545;45.302;-122.946;2022-10-16T05:46:04;11.38;;;5.40;;
51467;SDS011;37545;45.302;-122.946;2022-10-16T05:48:33;8.57;;;5.72;;
51467;SDS011;37545;45.302;-122.946;2022-10-16T05:51:03;8.48;;;5.50;;
51467;SDS011;37545;45.302;-122.946;2022-10-16T05:53:35;9.20;;;5.32;;
51467;SDS011;37545;45.302;-122.946;2022-10-16T05:56:05;12.70;;;5.63;;
51467;SDS011;37545;45.302;-122.946;2022-10-16T05:58:36;7.68;;;5.60;;
51467;SDS011;37545;45.302;-122.946;2022-10-16T06:01:06;12.15;;;5.32;;
51467;SDS011;37545;45.302;-122.946;2022-10-16T06:03:37;9.18;;;5.72;;
51467;SDS011;37545;45.302;-122.946;2022-10-16T06:06:09;8.65;;;5.38;;
51467;SDS011;37545;45.302;-122.946;2022-10-16T06:08:41;9.10;;;5.13;;
51467;SDS011;37545;45.302;-122.946;2022-10-16T06:11:11;10.02;;;5.50;;
51467;SDS011;37545;45.302;-122.946;2022-10-16T06:13:40;10.52;;;6.03;;
51467;SDS011;37545;45.302;-122.946;2022-10-16T06:16:11;11.93;;;5.90;;
51467;SDS011;37545;45.302;-122.946;2022-10-16T06:18:40;11.00;;;5.32;;
51467;SDS011;37545;45.302;-122.946;2022-10-16T06:21:09;11.07;;;5.63;;
51467;SDS011;37545;45.302;-122.946;2022-10-16T06:23:41;9.10;;;5.38;;
51467;SDS011;37545;45.302;-122.946;2022-10-16T06:26:12;7.63;;;5.23;;
51467;SDS011;37545;45.302;-122.946;2022-10-16T06:28:41;10.18;;;5.28;;
51467;SDS011;37545;45.302;-122.946;2022-10-16T06:31:10;9.95;;;5.70;;
51467;SDS011;37545;45.302;-122.946;2022-10-16T06:33:40;10.98;;;5.80;;
51467;SDS011;37545;45.302;-122.946;2022-10-16T06:36:10;11.18;;;5.32;;
51467;SDS011;37545;45.302;-122.946;2022-10-16T06:38:41;10.70;;;6.07;;
51467;SDS011;37545;45.302;-122.946;2022-10-16T06:41:11;8.05;;;5.13;;
51467;SDS011;37545;45.302;-122.946;2022-10-16T06:43:41;9.65;;;5.60;;
51467;SDS011;37545;45.302;-122.946;2022-10-16T06:46:10;11.40;;;5.93;;
51467;SDS011;37545;45.302;-122.946;2022-10-16T06:48:40;8.75;;;5.10;;
51467;SDS011;37545;45.302;-122.946;2022-10-16T06:51:09;9.82;;;5.45;;
51467;SDS011;37545;45.302;-122.946;2022-10-16T06:53:41;9.25;;;5.22;;
51467;SDS011;37545;45.302;-122.946;2022-10-16T06:56:11;11.02;;;5.47;;
51467;SDS011;37545;45.302;-122.946;2022-10-16T06:58:41;9.15;;;5.53;;
51467;SDS011;37545;45.302;-122.946;2022-10-16T07:01:10;15.00;;;5.25;;
51467;SDS011;37545;45.302;-122.946;2022-10-16T07:03:40;8.63;;;5.45;;
51467;SDS011;37545;45.302;-122.946;2022-10-16T07:06:10;9.57;;;5.10;;
51467;SDS011;37545;45.302;-122.946;2022-10-16T07:08:41;8.93;;;4.80;;
51467;SDS011;37545;45.302;-122.946;2022-10-16T07:11:12;11.67;;;4.90;;
51467;SDS011;37545;45.302;-122.946;2022-10-16T07:13:42;8.52;;;5.43;;
51467;SDS011;37545;45.302;-122.946;2022-10-16T07:16:11;10.85;;;5.68;;
51467;SDS011;37545;45.302;-122.946;2022-10-16T07:18:41;7.35;;;5.43;;
51467;SDS011;37545;45.302;-122.946;2022-10-16T07:21:12;9.50;;;4.90;;
51467;SDS011;37545;45.302;-122.946;2022-10-16T07:23:44;12.13;;;6.05;;
51467;SDS011;37545;45.302;-122.946;2022-10-16T07:26:12;11.57;;;5.35;;
51467;SDS011;37545;45.302;-122.946;2022-10-16T07:28:42;9.63;;;5.28;;
51467;SDS011;37545;45.302;-122.946;2022-10-16T07:31:11;8.90;;;5.35;;
51467;SDS011;37545;45.302;-122.946;2022-10-16T07:33:43;8.30;;;5.22;;
51467;SDS011;37545;45.302;-122.946;2022-10-16T07:36:13;8.85;;;5.05;;
51467;SDS011;37545;45.302;-122.946;2022-10-16T07:38:44;9.60;;;5.05;;
51467;SDS011;37545;45.302;-122.946;2022-10-16T07:41:13;8.68;;;4.75;;
51467;SDS011;37545;45.302;-122.946;2022-10-16T07:43:45;6.25;;;4.72;;
51467;SDS011;37545;45.302;-122.946;2022-10-16T07:46:14;11.38;;;5.25;;
51467;SDS011;37545;45.302;-122.946;2022-10-16T07:48:44;10.75;;;5.45;;
51467;SDS011;37545;45.302;-122.946;2022-10-16T07:51:14;8.70;;;4.95;;
51467;SDS011;37545;45.302;-122.946;2022-10-16T07:53:46;8.45;;;5.05;;
51467;SDS011;37545;45.302;-122.946;2022-10-16T07:56:15;7.68;;;5.03;;
51467;SDS011;37545;45.302;-122.946;2022-10-16T07:58:44;9.60;;;5.00;;
51467;SDS011;37545;45.302;-122.946;2022-10-16T08:01:15;9.85;;;5.30;;
51467;SDS011;37545;45.302;-122.946;2022-10-16T08:03:44;9.63;;;5.25;;
51467;SDS011;37545;45.302;-122.946;2022-10-16T08:06:14;7.10;;;5.15;;
51467;SDS011;37545;45.302;-122.946;2022-10-16T08:08:43;7.82;;;4.70;;
51467;SDS011;37545;45.302;-122.946;2022-10-16T08:11:13;8.25;;;4.82;;
51467;SDS011;37545;45.302;-122.946;2022-10-16T08:13:42;10.30;;;5.40;;
51467;SDS011;37545;45.302;-122.946;2022-10-16T08:16:10;8.88;;;5.15;;
51467;SDS011;37545;45.302;-122.946;2022-10-16T08:18:40;10.10;;;5.25;;
51467;SDS011;37545;45.302;-122.946;2022-10-16T08:21:12;14.93;;;5.40;;
51467;SDS011;37545;45.302;-122.946;2022-10-16T08:23:41;8.38;;;5.05;;
51467;SDS011;37545;45.302;-122.946;2022-10-16T08:26:10;7.95;;;4.88;;
51467;SDS011;37545;45.302;-122.946;2022-10-16T08:28:49;7.53;;;4.75;;
51467;SDS011;37545;45.302;-122.946;2022-10-16T08:31:18;7.28;;;4.57;;
51467;SDS011;37545;45.302;-122.946;2022-10-16T08:33:46;8.95;;;4.97;;
51467;SDS011;37545;45.302;-122.946;2022-10-16T08:36:15;10.77;;;5.38;;
51467;SDS011;37545;45.302;-122.946;2022-10-16T08:38:46;10.77;;;5.03;;
51467;SDS011;37545;45.302;-122.946;2022-10-16T08:44:25;6.35;;;4.43;;
51467;SDS011;37545;45.302;-122.946;2022-10-16T08:47:06;8.43;;;4.75;;
51467;SDS011;37545;45.302;-122.946;2022-10-16T08:49:48;6.63;;;4.53;;
51467;SDS011;37545;45.302;-122.946;2022-10-16T08:52:25;9.00;;;4.72;;
51467;SDS011;37545;45.302;-122.946;2022-10-16T08:54:57;9.85;;;4.72;;
51467;SDS011;37545;45.302;-122.946;2022-10-16T08:57:27;7.18;;;4.72;;
51467;SDS011;37545;45.302;-122.946;2022-10-16T08:59:59;10.10;;;4.82;;
51467;SDS011;37545;45.302;-122.946;2022-10-16T09:02:33;9.65;;;4.80;;
51467;SDS011;37545;45.302;-122.946;2022-10-16T09:05:17;7.88;;;4.40;;
51467;SDS011;37545;45.302;-122.946;2022-10-16T09:07:54;8.95;;;4.80;;
51467;SDS011;37545;45.302;-122.946;2022-10-16T09:10:32;11.40;;;5.63;;
51467;SDS011;37545;45.302;-122.946;2022-10-16T09:13:14;7.65;;;4.68;;
51467;SDS011;37545;45.302;-122.946;2022-10-16T09:15:52;6.50;;;4.78;;
51467;SDS011;37545;45.302;-122.946;2022-10-16T09:18:27;8.00;;;4.43;;
51467;SDS011;37545;45.302;-122.946;2022-10-16T09:21:05;6.55;;;4.10;;
51467;SDS011;37545;45.302;-122.946;2022-10-16T09:23:40;9.30;;;4.72;;
51467;SDS011;37545;45.302;-122.946;2022-10-16T09:26:09;9.00;;;4.68;;
51467;SDS011;37545;45.302;-122.946;2022-10-16T09:28:43;12.32;;;5.85;;
51467;SDS011;37545;45.302;-122.946;2022-10-16T09:31:15;11.85;;;4.88;;
51467;SDS011;37545;45.302;-122.946;2022-10-16T09:33:47;11.23;;;3.97;;
51467;SDS011;37545;45.302;-122.946;2022-10-16T09:36:20;7.03;;;4.30;;
51467;SDS011;37545;45.302;-122.946;2022-10-16T09:39:00;6.60;;;4.55;;
51467;SDS011;37545;45.302;-122.946;2022-10-16T09:41:30;8.25;;;4.50;;
51467;SDS011;37545;45.302;-122.946;2022-10-16T09:44:03;8.85;;;4.38;;
51467;SDS011;37545;45.302;-122.946;2022-10-16T09:49:04;6.78;;;4.03;;
51467;SDS011;37545;45.302;-122.946;2022-10-16T09:51:46;7.40;;;4.40;;
51467;SDS011;37545;45.302;-122.946;2022-10-16T09:54:15;7.32;;;4.80;;
51467;SDS011;37545;45.302;-122.946;2022-10-16T09:56:45;9.32;;;4.53;;
51467;SDS011;37545;45.302;-122.946;2022-10-16T09:59:19;9.00;;;4.03;;
51467;SDS011;37545;45.302;-122.946;2022-10-16T10:01:56;9.80;;;4.18;;
51467;SDS011;37545;45.302;-122.946;2022-10-16T10:07:06;8.23;;;4.03;;
51467;SDS011;37545;45.302;-122.946;2022-10-16T10:09:45;6.25;;;3.92;;
51467;SDS011;37545;45.302;-122.946;2022-10-16T10:12:17;6.63;;;4.22;;
51467;SDS011;37545;45.302;-122.946;2022-10-16T10:14:49;8.35;;;3.70;;
51467;SDS011;37545;45.302;-122.946;2022-10-16T10:17:20;6.13;;;4.25;;
51467;SDS011;37545;45.302;-122.946;2022-10-16T10:19:51;10.80;;;4.10;;
51467;SDS011;37545;45.302;-122.946;2022-10-16T10:22:31;6.70;;;4.00;;
51467;SDS011;37545;45.302;-122.946;2022-10-16T10:25:15;6.57;;;4.10;;
51467;SDS011;37545;45.302;-122.946;2022-10-16T10:27:52;9.35;;;4.35;;
51467;SDS011;37545;45.302;-122.946;2022-10-16T10:30:35;7.80;;;4.32;;
51467;SDS011;37545;45.302;-122.946;2022-10-16T10:33:12;7.75;;;4.55;;
51467;SDS011;37545;45.302;-122.946;2022-10-16T10:35:50;8.63;;;4.22;;
51467;SDS011;37545;45.302;-122.946;2022-10-16T10:38:30;10.38;;;4.05;;
51467;SDS011;37545;45.302;-122.946;2022-10-16T10:41:20;10.70;;;4.63;;
51467;SDS011;37545;45.302;-122.946;2022-10-16T10:44:01;6.57;;;4.30;;
51467;SDS011;37545;45.302;-122.946;2022-10-16T10:46:41;7.53;;;4.43;;
51467;SDS011;37545;45.302;-122.946;2022-10-16T10:49:20;6.43;;;3.95;;
51467;SDS011;37545;45.302;-122.946;2022-10-16T10:52:05;11.60;;;3.78;;
51467;SDS011;37545;45.302;-122.946;2022-10-16T10:54:51;7.45;;;3.95;;
51467;SDS011;37545;45.302;-122.946;2022-10-16T10:57:30;8.68;;;3.75;;
51467;SDS011;37545;45.302;-122.946;2022-10-16T11:00:05;8.20;;;4.35;;
51467;SDS011;37545;45.302;-122.946;2022-10-16T11:02:50;8.75;;;4.50;;
51467;SDS011;37545;45.302;-122.946;2022-10-16T11:05:28;8.55;;;4.20;;
51467;SDS011;37545;45.302;-122.946;2022-10-16T11:08:09;11.50;;;4.50;;
51467;SDS011;37545;45.302;-122.946;2022-10-16T11:10:45;8.95;;;3.97;;
51467;SDS011;37545;45.302;-122.946;2022-10-16T11:16:06;9.40;;;4.13;;
51467;SDS011;37545;45.302;-122.946;2022-10-16T11:18:52;9.85;;;4.63;;
51467;SDS011;37545;45.302;-122.946;2022-10-16T11:21:26;10.50;;;4.28;;
51467;SDS011;37545;45.302;-122.946;2022-10-16T11:24:04;9.13;;;4.07;;
51467;SDS011;37545;45.302;-122.946;2022-10-16T11:26:42;9.88;;;4.20;;
51467;SDS011;37545;45.302;-122.946;2022-10-16T11:29:15;11.95;;;4.63;;
51467;SDS011;37545;45.302;-122.946;2022-10-16T11:31:50;9.20;;;4.18;;
51467;SDS011;37545;45.302;-122.946;2022-10-16T11:34:24;7.40;;;4.20;;
51467;SDS011;37545;45.302;-122.946;2022-10-16T11:37:01;9.32;;;4.03;;
51467;SDS011;37545;45.302;-122.946;2022-10-16T11:39:36;14.40;;;5.57;;
51467;SDS011;37545;45.302;-122.946;2022-10-16T11:42:08;5.55;;;3.80;;
51467;SDS011;37545;45.302;-122.946;2022-10-16T11:44:44;8.75;;;4.45;;
51467;SDS011;37545;45.302;-122.946;2022-10-16T11:47:23;7.70;;;4.25;;
51467;SDS011;37545;45.302;-122.946;2022-10-16T11:50:01;8.75;;;4.47;;
51467;SDS011;37545;45.302;-122.946;2022-10-16T11:52:38;7.95;;;4.07;;
51467;SDS011;37545;45.302;-122.946;2022-10-16T11:55:13;8.27;;;4.30;;
51467;SDS011;37545;45.302;-122.946;2022-10-16T11:57:44;7.57;;;4.43;;
51467;SDS011;37545;45.302;-122.946;2022-10-16T12:00:19;10.43;;;4.20;;
51467;SDS011;37545;45.302;-122.946;2022-10-16T12:02:54;8.38;;;4.80;;
51467;SDS011;37545;45.302;-122.946;2022-10-16T12:05:31;14.45;;;4.72;;
51467;SDS011;37545;45.302;-122.946;2022-10-16T12:08:10;6.88;;;4.13;;
51467;SDS011;37545;45.302;-122.946;2022-10-16T12:10:41;11.90;;;4.32;;
51467;SDS011;37545;45.302;-122.946;2022-10-16T12:13:29;8.35;;;4.93;;
51467;SDS011;37545;45.302;-122.946;2022-10-16T12:16:07;7.80;;;4.10;;
51467;SDS011;37545;45.302;-122.946;2022-10-16T12:19:02;9.07;;;4.30;;
51467;SDS011;37545;45.302;-122.946;2022-10-16T12:21:39;7.18;;;4.03;;
51467;SDS011;37545;45.302;-122.946;2022-10-16T12:24:18;6.72;;;4.43;;
51467;SDS011;37545;45.302;-122.946;2022-10-16T12:26:58;7.35;;;4.15;;
51467;SDS011;37545;45.302;-122.946;2022-10-16T12:29:34;7.95;;;4.57;;
51467;SDS011;37545;45.302;-122.946;2022-10-16T12:32:05;7.82;;;4.35;;
51467;SDS011;37545;45.302;-122.946;2022-10-16T12:34:50;6.53;;;4.07;;
51467;SDS011;37545;45.302;-122.946;2022-10-16T12:37:21;10.32;;;4.53;;
51467;SDS011;37545;45.302;-122.946;2022-10-16T12:39:53;6.57;;;4.30;;
51467;SDS011;37545;45.302;-122.946;2022-10-16T12:42:30;9.25;;;4.22;;
51467;SDS011;37545;45.302;-122.946;2022-10-16T12:45:00;7.90;;;4.38;;
51467;SDS011;37545;45.302;-122.946;2022-10-16T12:47:50;9.13;;;4.20;;
51467;SDS011;37545;45.302;-122.946;2022-10-16T12:50:31;8.90;;;4.18;;
51467;SDS011;37545;45.302;-122.946;2022-10-16T12:53:03;9.18;;;4.97;;
51467;SDS011;37545;45.302;-122.946;2022-10-16T12:55:48;8.85;;;4.10;;
51467;SDS011;37545;45.302;-122.946;2022-10-16T12:58:35;9.60;;;4.20;;
51467;SDS011;37545;45.302;-122.946;2022-10-16T13:01:20;7.63;;;4.07;;
51467;SDS011;37545;45.302;-122.946;2022-10-16T13:04:00;6.95;;;4.28;;
51467;SDS011;37545;45.302;-122.946;2022-10-16T13:06:45;8.98;;;4.25;;
51467;SDS011;37545;45.302;-122.946;2022-10-16T13:09:27;6.72;;;4.07;;
51467;SDS011;37545;45.302;-122.946;2022-10-16T13:12:07;5.95;;;3.90;;
51467;SDS011;37545;45.302;-122.946;2022-10-16T13:14:50;9.18;;;4.18;;
51467;SDS011;37545;45.302;-122.946;2022-10-16T13:17:34;8.68;;;4.45;;
51467;SDS011;37545;45.302;-122.946;2022-10-16T13:20:13;8.27;;;4.10;;
51467;SDS011;37545;45.302;-122.946;2022-10-16T13:22:51;9.07;;;5.10;;
51467;SDS011;37545;45.302;-122.946;2022-10-16T13:25:28;6.22;;;3.92;;
51467;SDS011;37545;45.302;-122.946;2022-10-16T13:28:07;7.85;;;4.32;;
51467;SDS011;37545;45.302;-122.946;2022-10-16T13:30:38;9.30;;;4.25;;
51467;SDS011;37545;45.302;-122.946;2022-10-16T13:33:13;8.82;;;4.57;;
51467;SDS011;37545;45.302;-122.946;2022-10-16T13:35:48;7.28;;;4.22;;
51467;SDS011;37545;45.302;-122.946;2022-10-16T13:38:19;7.05;;;4.63;;
51467;SDS011;37545;45.302;-122.946;2022-10-16T13:40:52;7.50;;;4.32;;
51467;SDS011;37545;45.302;-122.946;2022-10-16T13:43:24;6.85;;;4.43;;
51467;SDS011;37545;45.302;-122.946;2022-10-16T13:45:57;6.28;;;4.07;;
51467;SDS011;37545;45.302;-122.946;2022-10-16T13:48:27;8.98;;;4.53;;
51467;SDS011;37545;45.302;-122.946;2022-10-16T13:50:59;8.55;;;4.10;;
51467;SDS011;37545;45.302;-122.946;2022-10-16T13:53:30;6.15;;;4.20;;
51467;SDS011;37545;45.302;-122.946;2022-10-16T13:56:01;9.05;;;4.15;;
51467;SDS011;37545;45.302;-122.946;2022-10-16T13:58:31;6.00;;;4.17;;
51467;SDS011;37545;45.302;-122.946;2022-10-16T14:01:00;8.75;;;4.43;;
51467;SDS011;37545;45.302;-122.946;2022-10-16T14:03:32;8.98;;;4.50;;
51467;SDS011;37545;45.302;-122.946;2022-10-16T14:06:03;7.22;;;4.45;;
51467;SDS011;37545;45.302;-122.946;2022-10-16T14:08:41;8.93;;;4.03;;
51467;SDS011;37545;45.302;-122.946;2022-10-16T14:11:19;8.55;;;4.00;;
51467;SDS011;37545;45.302;-122.946;2022-10-16T14:13:50;8.45;;;4.22;;
51467;SDS011;37545;45.302;-122.946;2022-10-16T14:16:20;7.35;;;4.05;;
51467;SDS011;37545;45.302;-122.946;2022-10-16T14:18:52;11.32;;;4.40;;
51467;SDS011;37545;45.302;-122.946;2022-10-16T14:21:26;7.53;;;4.15;;
51467;SDS011;37545;45.302;-122.946;2022-10-16T14:23:56;7.10;;;3.70;;
51467;SDS011;37545;45.302;-122.946;2022-10-16T14:26:27;6.95;;;3.78;;
51467;SDS011;37545;45.302;-122.946;2022-10-16T14:29:03;6.57;;;3.97;;
51467;SDS011;37545;45.302;-122.946;2022-10-16T14:36:53;5.60;;;3.58;;
51467;SDS011;37545;45.302;-122.946;2022-10-16T14:39:23;7.07;;;4.20;;
51467;SDS011;37545;45.302;-122.946;2022-10-16T14:41:55;6.28;;;3.80;;
51467;SDS011;37545;45.302;-122.946;2022-10-16T14:44:29;6.38;;;3.58;;
51467;SDS011;37545;45.302;-122.946;2022-10-16T14:47:06;7.95;;;3.88;;
51467;SDS011;37545;45.302;-122.946;2022-10-16T14:49:41;6.25;;;3.40;;
51467;SDS011;37545;45.302;-122.946;2022-10-16T14:52:10;8.05;;;3.35;;
51467;SDS011;37545;45.302;-122.946;2022-10-16T14:54:40;6.70;;;4.05;;
51467;SDS011;37545;45.302;-122.946;2022-10-16T14:57:16;8.38;;;3.95;;
51467;SDS011;37545;45.302;-122.946;2022-10-16T14:59:47;8.48;;;3.95;;